Time;durP1;ratioP1;P1;durP2;ratioP2;P2;SDS_P1;SDS_P2;PMS_P1;PMS_P2;Temp;Humidity;BMP_temperature;BMP_pressure;BME280_temperature;BME280_humidity;BME280_pressure;Samples;Min_cycle;Max_cycle;Signal;HPM_P1;HPM_P2
2022/07/11 00:02:07;;;;;;;5.85;2.50;;;18.70;99.90;;;;;;5134053;27;20689;-57
2022/07/11 00:04:34;;;;;;;5.55;2.70;;;18.70;99.90;;;;;;5133936;27;20187;-57
2022/07/11 00:07:01;;;;;;;6.13;2.90;;;18.60;99.90;;;;;;5133528;27;20621;-57
2022/07/11 00:09:27;;;;;;;5.75;2.90;;;18.60;99.90;;;;;;5133391;27;20164;-57
2022/07/11 00:11:53;;;;;;;3.78;2.63;;;18.60;99.90;;;;;;5133407;27;20548;-57
2022/07/11 00:14:21;;;;;;;6.10;2.97;;;18.60;99.90;;;;;;5133565;27;20203;-58
2022/07/11 00:16:47;;;;;;;4.18;2.67;;;18.60;99.90;;;;;;5133685;27;20267;-57
2022/07/11 00:19:13;;;;;;;4.70;3.03;;;18.50;99.90;;;;;;5133461;27;20168;-57
2022/07/11 00:21:38;;;;;;;4.80;2.92;;;18.50;99.90;;;;;;5133434;27;20513;-58
2022/07/11 00:24:06;;;;;;;3.95;2.47;;;18.50;99.90;;;;;;5133610;27;20175;-57
2022/07/11 00:26:32;;;;;;;3.97;2.75;;;18.50;99.90;;;;;;5131926;27;20256;-57
2022/07/11 00:28:57;;;;;;;7.85;3.05;;;18.50;99.90;;;;;;5133233;27;20168;-57
2022/07/11 00:31:23;;;;;;;6.85;2.53;;;18.50;99.90;;;;;;5133265;27;20221;-57
2022/07/11 00:33:49;;;;;;;4.43;2.83;;;18.50;99.90;;;;;;5133103;27;20234;-57
2022/07/11 00:36:14;;;;;;;4.30;2.78;;;18.50;99.90;;;;;;5133177;27;20632;-57
2022/07/11 00:38:40;;;;;;;4.95;3.10;;;18.50;99.90;;;;;;5133175;27;20160;-57
2022/07/11 00:41:06;;;;;;;6.90;2.70;;;18.50;99.90;;;;;;5133427;27;20166;-58
2022/07/11 00:43:34;;;;;;;3.20;2.38;;;18.40;99.90;;;;;;5133110;27;20212;-57
2022/07/11 00:46:00;;;;;;;6.38;2.90;;;18.40;99.90;;;;;;5133332;27;20218;-57
2022/07/11 00:48:26;;;;;;;4.68;3.20;;;18.40;99.90;;;;;;5133025;27;20636;-57
2022/07/11 00:50:52;;;;;;;6.80;3.33;;;18.40;99.90;;;;;;5132904;27;20629;-58
2022/07/11 00:53:19;;;;;;;4.75;2.95;;;18.40;99.90;;;;;;5132760;27;20224;-58
2022/07/11 00:55:46;;;;;;;7.78;2.90;;;18.30;99.90;;;;;;5132857;27;20684;-57
2022/07/11 00:58:12;;;;;;;4.10;3.10;;;18.30;99.90;;;;;;5132965;27;20164;-57
2022/07/11 01:00:41;;;;;;;6.07;2.95;;;18.30;99.90;;;;;;5132918;28;20168;-57
2022/07/11 01:03:07;;;;;;;8.40;3.22;;;18.20;99.90;;;;;;5131909;28;20172;-59
2022/07/11 01:05:33;;;;;;;4.00;2.95;;;18.20;99.90;;;;;;5133027;28;20217;-58
2022/07/11 01:07:59;;;;;;;3.58;2.90;;;18.20;99.90;;;;;;5132883;27;20164;-58
2022/07/11 01:10:25;;;;;;;7.13;3.50;;;18.20;99.90;;;;;;5133037;27;20207;-56
2022/07/11 01:12:51;;;;;;;6.22;3.42;;;18.20;99.90;;;;;;5133035;27;20576;-60
2022/07/11 01:15:16;;;;;;;7.03;3.40;;;18.20;99.90;;;;;;5132946;28;20204;-59
2022/07/11 01:17:43;;;;;;;9.20;3.95;;;18.20;99.90;;;;;;5132679;28;20164;-59
2022/07/11 01:20:09;;;;;;;5.70;3.22;;;18.20;99.90;;;;;;5132798;27;20200;-59
2022/07/11 01:22:50;;;;;;;6.07;3.15;;;18.20;99.90;;;;;;5133019;27;20156;-59
2022/07/11 01:25:29;;;;;;;6.65;3.45;;;18.20;99.90;;;;;;5132656;27;20164;-59
2022/07/11 01:28:00;;;;;;;6.90;3.58;;;18.10;99.90;;;;;;5131485;28;20219;-60
2022/07/11 01:30:27;;;;;;;4.38;3.30;;;18.00;99.90;;;;;;5132630;27;20213;-58
2022/07/11 01:32:56;;;;;;;6.13;3.58;;;18.00;99.90;;;;;;5132616;27;20167;-57
2022/07/11 01:35:22;;;;;;;5.45;3.22;;;17.90;99.90;;;;;;5132439;27;20551;-60
2022/07/11 01:37:48;;;;;;;6.32;3.15;;;17.90;99.90;;;;;;5132496;27;20152;-59
2022/07/11 01:40:14;;;;;;;7.60;3.67;;;17.80;99.90;;;;;;5132463;27;20232;-60
2022/07/11 01:42:40;;;;;;;7.53;3.22;;;17.80;99.90;;;;;;5132734;27;20282;-60
2022/07/11 01:45:06;;;;;;;8.57;3.75;;;17.70;99.90;;;;;;5132840;27;20179;-59
2022/07/11 01:47:33;;;;;;;5.68;4.00;;;17.60;99.90;;;;;;5132699;27;20199;-57
2022/07/11 01:49:58;;;;;;;4.75;3.50;;;17.60;99.90;;;;;;5132425;28;20179;-57
2022/07/11 01:52:24;;;;;;;6.43;4.22;;;17.50;99.90;;;;;;5132656;28;20156;-59
2022/07/11 01:54:49;;;;;;;9.23;3.55;;;17.50;99.90;;;;;;5132252;28;20302;-60
2022/07/11 01:57:15;;;;;;;9.00;3.97;;;17.50;99.90;;;;;;5132449;28;20187;-59
2022/07/11 01:59:41;;;;;;;5.32;3.10;;;17.50;99.90;;;;;;5132587;28;20168;-59
2022/07/11 02:02:07;;;;;;;6.40;3.97;;;17.40;99.90;;;;;;5132647;27;20251;-57
2022/07/11 02:04:33;;;;;;;6.50;3.60;;;17.40;99.90;;;;;;5133506;27;20696;-59
2022/07/11 02:06:59;;;;;;;6.90;3.30;;;17.30;99.90;;;;;;5135988;27;20165;-59
2022/07/11 02:09:25;;;;;;;7.15;3.75;;;17.30;99.90;;;;;;5135940;27;20183;-59
2022/07/11 02:11:50;;;;;;;7.68;4.05;;;17.30;99.90;;;;;;5135957;27;20168;-59
2022/07/11 02:14:16;;;;;;;5.68;4.00;;;17.30;99.90;;;;;;5135817;27;20256;-59
2022/07/11 02:16:42;;;;;;;10.57;3.72;;;17.30;99.90;;;;;;5135756;27;20164;-60
2022/07/11 02:19:07;;;;;;;7.28;4.30;;;17.30;99.90;;;;;;5135857;27;20167;-57
2022/07/11 02:21:33;;;;;;;7.20;4.20;;;17.20;99.90;;;;;;5136022;27;20171;-57
2022/07/11 02:23:59;;;;;;;5.88;3.97;;;17.20;99.90;;;;;;5135622;27;20167;-58
2022/07/11 02:26:25;;;;;;;6.47;4.00;;;17.20;99.90;;;;;;5135449;27;20264;-57
2022/07/11 02:28:51;;;;;;;7.97;4.68;;;17.20;99.90;;;;;;5135637;27;20294;-57
2022/07/11 02:31:16;;;;;;;8.43;4.47;;;17.10;99.90;;;;;;5135526;27;20175;-57
2022/07/11 02:33:42;;;;;;;6.20;4.50;;;17.00;99.90;;;;;;5135429;27;20168;-56
2022/07/11 02:36:08;;;;;;;9.00;4.18;;;17.10;99.90;;;;;;5135337;27;20540;-57
2022/07/11 02:38:34;;;;;;;11.48;4.10;;;17.10;99.90;;;;;;5135891;27;20176;-57
2022/07/11 02:41:00;;;;;;;7.07;4.60;;;17.10;99.90;;;;;;5135369;27;20232;-56
2022/07/11 02:43:26;;;;;;;8.35;4.43;;;17.00;99.90;;;;;;5135242;27;20195;-57
2022/07/11 02:45:52;;;;;;;6.45;4.53;;;17.00;99.90;;;;;;5135256;27;20629;-57
2022/07/11 02:48:17;;;;;;;7.50;4.43;;;17.00;99.90;;;;;;5135118;27;20266;-57
2022/07/11 02:50:43;;;;;;;5.05;4.00;;;17.00;99.90;;;;;;5135145;27;20167;-57
2022/07/11 02:53:09;;;;;;;8.73;4.43;;;17.10;99.90;;;;;;5135104;27;20198;-57
2022/07/11 02:55:34;;;;;;;11.70;4.43;;;17.00;99.90;;;;;;5135538;27;20211;-56
2022/07/11 02:58:00;;;;;;;8.20;4.43;;;17.10;99.90;;;;;;5134947;27;20589;-56
2022/07/11 03:00:26;;;;;;;6.00;4.18;;;17.00;99.90;;;;;;5134910;27;20221;-56
2022/07/11 03:02:51;;;;;;;4.95;4.10;;;17.00;99.90;;;;;;5134907;27;20640;-59
2022/07/11 03:05:17;;;;;;;7.93;4.25;;;16.90;99.90;;;;;;5134852;27;20532;-57
2022/07/11 03:07:43;;;;;;;11.30;5.18;;;16.90;99.90;;;;;;5134922;27;20175;-58
2022/07/11 03:10:09;;;;;;;7.47;4.95;;;16.90;99.90;;;;;;5134969;27;20238;-59
2022/07/11 03:12:35;;;;;;;9.77;5.00;;;16.90;99.90;;;;;;5135016;27;20719;-59
2022/07/11 03:15:00;;;;;;;5.32;4.57;;;16.80;99.90;;;;;;5134551;27;20294;-59
2022/07/11 03:17:26;;;;;;;8.15;5.00;;;16.70;99.90;;;;;;5133394;27;20168;-58
2022/07/11 03:19:52;;;;;;;7.13;4.93;;;16.70;99.90;;;;;;5134915;27;20179;-59
2022/07/11 03:22:18;;;;;;;7.78;5.10;;;16.70;99.90;;;;;;5134504;27;20172;-59
2022/07/11 03:24:44;;;;;;;9.25;4.72;;;16.70;99.90;;;;;;5134461;27;20167;-59
2022/07/11 03:27:10;;;;;;;8.18;4.28;;;16.80;99.90;;;;;;5133622;27;20271;-59
2022/07/11 03:29:36;;;;;;;5.90;4.90;;;16.80;99.90;;;;;;5134875;27;20539;-59
2022/07/11 03:32:02;;;;;;;4.80;4.20;;;16.80;99.90;;;;;;5134626;27;20221;-60
2022/07/11 03:34:27;;;;;;;9.80;4.40;;;16.80;99.90;;;;;;5134218;27;20559;-59
2022/07/11 03:36:54;;;;;;;7.25;4.35;;;16.70;99.90;;;;;;5134236;27;20199;-59
2022/07/11 03:39:21;;;;;;;7.03;4.72;;;16.80;99.90;;;;;;5134482;27;20217;-60
2022/07/11 03:41:47;;;;;;;8.43;4.57;;;16.80;99.90;;;;;;5134078;27;20640;-59
2022/07/11 03:44:12;;;;;;;6.25;4.20;;;16.70;99.90;;;;;;5134093;27;20179;-59
2022/07/11 03:46:38;;;;;;;7.95;4.50;;;16.80;99.90;;;;;;5133871;27;20178;-57
2022/07/11 03:49:04;;;;;;;8.45;4.53;;;16.80;99.90;;;;;;5134133;27;20164;-59
2022/07/11 03:51:29;;;;;;;9.07;5.35;;;16.90;99.90;;;;;;5132640;27;20168;-61
2022/07/11 03:53:55;;;;;;;7.03;4.53;;;16.80;99.90;;;;;;5133837;27;20164;-61
2022/07/11 03:56:22;;;;;;;10.68;4.43;;;16.80;99.90;;;;;;5134168;27;20199;-59
2022/07/11 03:58:49;;;;;;;7.30;4.35;;;16.90;99.90;;;;;;5133822;27;20159;-59
2022/07/11 04:01:15;;;;;;;8.75;4.13;;;16.90;99.90;;;;;;5134011;27;20164;-59
2022/07/11 04:03:41;;;;;;;8.30;4.15;;;16.90;99.90;;;;;;5133963;27;20168;-57
2022/07/11 04:06:07;;;;;;;6.43;4.05;;;16.90;99.90;;;;;;5133764;27;20188;-58
2022/07/11 04:08:33;;;;;;;9.68;4.60;;;16.90;99.90;;;;;;5133935;27;20201;-57
2022/07/11 04:10:59;;;;;;;7.25;5.22;;;17.00;99.90;;;;;;5133553;27;20208;-59
2022/07/11 04:13:25;;;;;;;10.18;4.30;;;17.00;99.90;;;;;;5133548;27;20160;-57
2022/07/11 04:15:53;;;;;;;9.27;4.05;;;16.90;99.90;;;;;;5133443;27;20244;-57
2022/07/11 04:18:19;;;;;;;4.55;3.78;;;17.10;99.90;;;;;;5133478;27;20164;-60
2022/07/11 04:20:44;;;;;;;6.50;3.80;;;17.10;99.90;;;;;;5133561;27;20167;-59
2022/07/11 04:23:10;;;;;;;5.82;3.92;;;17.20;99.90;;;;;;5133375;27;20168;-60
2022/07/11 04:25:35;;;;;;;10.50;4.65;;;17.30;99.90;;;;;;5133759;27;20160;-57
2022/07/11 04:28:01;;;;;;;10.55;3.80;;;17.30;99.90;;;;;;5132742;27;20684;-57
2022/07/11 04:30:27;;;;;;;7.88;3.70;;;17.40;99.90;;;;;;5133591;27;20164;-57
2022/07/11 04:32:53;;;;;;;9.95;3.75;;;17.40;99.90;;;;;;5133181;27;20667;-57
2022/07/11 04:35:19;;;;;;;8.23;3.60;;;17.50;99.90;;;;;;5133383;27;20299;-58
2022/07/11 04:37:44;;;;;;;7.22;3.67;;;17.50;99.90;;;;;;5133352;27;20243;-57
2022/07/11 04:40:10;;;;;;;8.55;4.00;;;17.50;99.90;;;;;;5133373;27;20171;-57
2022/07/11 04:42:37;;;;;;;6.68;4.13;;;17.50;99.90;;;;;;5133335;27;20160;-57
2022/07/11 04:45:02;;;;;;;7.30;3.78;;;17.40;99.90;;;;;;5133047;27;20186;-58
2022/07/11 04:47:28;;;;;;;7.60;4.38;;;17.50;99.90;;;;;;5133095;27;20208;-57
2022/07/11 04:49:54;;;;;;;6.55;3.95;;;17.40;99.90;;;;;;5132542;27;20171;-57
2022/07/11 04:52:19;;;;;;;5.35;3.47;;;17.40;99.90;;;;;;5133218;27;20163;-57
2022/07/11 04:54:45;;;;;;;6.10;3.67;;;17.50;99.90;;;;;;5132643;27;20200;-56
2022/07/11 04:57:11;;;;;;;5.80;3.22;;;17.50;99.90;;;;;;5132779;28;20216;-58
2022/07/11 04:59:37;;;;;;;6.70;3.63;;;17.60;99.90;;;;;;5133055;27;20174;-57
2022/07/11 05:02:03;;;;;;;4.82;3.00;;;17.60;99.90;;;;;;5132335;27;20629;-58
2022/07/11 05:04:28;;;;;;;6.32;3.60;;;17.60;99.90;;;;;;5132810;27;20156;-57
2022/07/11 05:06:54;;;;;;;7.80;3.40;;;17.60;99.90;;;;;;5132763;28;20224;-58
2022/07/11 05:09:19;;;;;;;6.25;3.10;;;17.60;99.90;;;;;;5132811;28;20155;-57
2022/07/11 05:11:45;;;;;;;5.15;3.20;;;17.70;99.90;;;;;;5132741;28;20239;-57
2022/07/11 05:14:10;;;;;;;4.63;2.80;;;17.60;99.90;;;;;;5132585;28;20183;-57
2022/07/11 05:16:36;;;;;;;6.93;3.30;;;17.70;99.90;;;;;;5132665;28;20164;-57
2022/07/11 05:19:01;;;;;;;4.53;2.67;;;17.80;99.90;;;;;;5132423;28;20216;-57
2022/07/11 05:21:27;;;;;;;3.60;2.70;;;17.80;99.90;;;;;;5132782;28;20599;-57
2022/07/11 05:23:53;;;;;;;4.95;2.70;;;17.80;99.90;;;;;;5132631;28;20265;-58
2022/07/11 05:26:20;;;;;;;6.47;2.83;;;17.80;99.90;;;;;;5132415;28;20243;-58
2022/07/11 05:28:45;;;;;;;4.43;2.78;;;17.80;99.90;;;;;;5132550;27;20156;-57
2022/07/11 05:31:11;;;;;;;5.60;3.22;;;17.90;99.90;;;;;;5132482;28;20167;-57
2022/07/11 05:33:37;;;;;;;3.97;2.63;;;17.90;99.90;;;;;;5132914;28;20216;-57
2022/07/11 05:36:02;;;;;;;5.05;2.88;;;17.90;99.90;;;;;;5132690;27;20687;-58
2022/07/11 05:38:28;;;;;;;2.95;2.35;;;17.90;99.90;;;;;;5132786;27;20645;-57
2022/07/11 05:40:54;;;;;;;5.22;2.72;;;18.00;99.90;;;;;;5135797;27;20172;-58
2022/07/11 05:43:20;;;;;;;4.28;2.53;;;17.90;99.90;;;;;;5136300;27;20506;-57
2022/07/11 05:45:45;;;;;;;5.72;2.90;;;17.90;99.90;;;;;;5136323;27;20164;-57
2022/07/11 05:48:11;;;;;;;4.45;2.40;;;18.00;99.90;;;;;;5136202;27;20196;-56
2022/07/11 05:50:37;;;;;;;5.85;3.00;;;17.90;99.90;;;;;;5136480;27;20168;-57
2022/07/11 05:53:02;;;;;;;4.95;2.47;;;18.10;99.90;;;;;;5136376;27;20189;-56
2022/07/11 05:55:29;;;;;;;4.50;2.83;;;18.20;99.90;;;;;;5136333;27;20208;-56
2022/07/11 05:57:55;;;;;;;8.25;2.75;;;18.20;99.90;;;;;;5136463;27;20574;-57
2022/07/11 06:00:25;;;;;;;6.22;3.08;;;18.20;99.90;;;;;;5136074;27;20172;-57
2022/07/11 06:02:51;;;;;;;5.05;2.70;;;18.30;99.90;;;;;;5136103;27;20152;-57
2022/07/11 06:05:16;;;;;;;5.10;2.75;;;18.40;99.90;;;;;;5136013;27;20246;-57
2022/07/11 06:10:27;;;;;;;3.33;2.30;;;18.30;99.90;;;;;;5135987;27;20247;-57
2022/07/11 06:12:53;;;;;;;3.85;2.33;;;18.40;99.90;;;;;;5135834;27;20156;-57
2022/07/11 06:15:19;;;;;;;2.15;1.90;;;18.40;99.90;;;;;;5135816;27;20273;-57
2022/07/11 06:17:45;;;;;;;4.15;2.17;;;18.40;99.90;;;;;;5136035;27;20164;-57
2022/07/11 06:20:11;;;;;;;3.53;1.98;;;18.40;99.90;;;;;;5135951;27;20168;-57
2022/07/11 06:22:37;;;;;;;2.72;2.30;;;18.30;99.90;;;;;;5135877;27;20541;-57
2022/07/11 06:25:03;;;;;;;6.28;3.05;;;18.30;99.90;;;;;;5135666;27;20160;-56
2022/07/11 06:27:28;;;;;;;3.88;2.10;;;18.30;99.90;;;;;;5135293;27;20216;-57
2022/07/11 06:30:09;;;;;;;2.55;2.05;;;18.40;99.90;;;;;;5135973;27;20172;-56
2022/07/11 06:32:35;;;;;;;3.13;1.75;;;18.40;99.90;;;;;;5136056;27;20238;-56
2022/07/11 06:35:01;;;;;;;3.65;1.60;;;18.40;99.90;;;;;;5135282;27;20684;-57
2022/07/11 06:37:26;;;;;;;2.97;1.92;;;18.40;99.90;;;;;;5135370;27;20170;-58
2022/07/11 06:39:52;;;;;;;3.25;2.10;;;18.40;99.90;;;;;;5135671;27;20677;-57
2022/07/11 06:42:18;;;;;;;2.58;2.35;;;18.40;99.90;;;;;;5135320;27;20675;-53
2022/07/11 06:44:43;;;;;;;3.85;2.20;;;18.40;99.90;;;;;;5135371;27;20179;-53
2022/07/11 06:47:09;;;;;;;5.93;2.10;;;18.40;99.90;;;;;;5135167;27;20168;-55
2022/07/11 06:49:34;;;;;;;4.95;2.10;;;18.50;99.90;;;;;;5135454;27;20175;-53
2022/07/11 06:52:00;;;;;;;5.53;2.42;;;18.60;99.90;;;;;;5134898;27;20247;-54
2022/07/11 06:54:25;;;;;;;4.63;3.05;;;18.70;99.90;;;;;;5135233;27;20554;-54
2022/07/11 06:56:51;;;;;;;4.90;2.17;;;18.70;99.90;;;;;;5135090;27;20697;-58
2022/07/11 06:59:16;;;;;;;3.70;2.03;;;18.80;99.90;;;;;;5134992;27;20187;-55
2022/07/11 07:01:43;;;;;;;3.83;2.10;;;18.80;99.90;;;;;;5135220;27;20164;-55
2022/07/11 07:04:08;;;;;;;3.65;2.33;;;18.80;99.90;;;;;;5135007;27;20159;-55
2022/07/11 07:06:34;;;;;;;4.30;2.53;;;18.80;99.90;;;;;;5135160;27;20301;-56
2022/07/11 07:09:01;;;;;;;3.17;2.00;;;18.80;99.90;;;;;;5134715;27;20512;-55
2022/07/11 07:11:26;;;;;;;5.13;2.33;;;18.60;99.90;;;;;;5134740;27;20168;-55
2022/07/11 07:13:52;;;;;;;5.35;2.20;;;18.60;99.90;;;;;;5134654;27;20163;-55
2022/07/11 07:16:17;;;;;;;4.30;2.03;;;18.60;99.90;;;;;;5134650;27;20293;-55
2022/07/11 07:18:45;;;;;;;5.45;2.45;;;18.60;99.90;;;;;;5134640;27;20163;-54
2022/07/11 07:21:11;;;;;;;6.22;2.58;;;18.60;99.90;;;;;;5134766;27;20171;-55
2022/07/11 07:23:37;;;;;;;7.13;2.45;;;18.70;99.90;;;;;;5134986;27;20522;-55
2022/07/11 07:26:02;;;;;;;3.97;2.25;;;18.60;99.90;;;;;;5132955;27;20179;-54
2022/07/11 07:28:28;;;;;;;6.63;3.00;;;18.70;99.90;;;;;;5132599;27;20216;-59
2022/07/11 07:30:54;;;;;;;4.97;2.83;;;18.90;99.90;;;;;;5133030;27;20172;-65
2022/07/11 07:33:20;;;;;;;7.90;2.50;;;18.70;99.90;;;;;;5132886;27;20633;-60
2022/07/11 07:35:45;;;;;;;4.95;2.35;;;18.70;99.90;;;;;;5132774;27;20207;-58
2022/07/11 07:38:11;;;;;;;6.18;2.70;;;18.70;99.90;;;;;;5133185;27;20191;-57
2022/07/11 07:40:37;;;;;;;4.45;2.30;;;18.70;99.90;;;;;;5132939;27;20164;-60
2022/07/11 07:43:02;;;;;;;4.78;2.35;;;18.70;99.90;;;;;;5132781;27;20171;-53
2022/07/11 07:45:28;;;;;;;3.58;2.22;;;18.60;99.90;;;;;;5133043;27;20179;-54
2022/07/11 07:47:53;;;;;;;3.17;2.15;;;18.60;99.90;;;;;;5132722;27;20213;-60
2022/07/11 07:50:19;;;;;;;3.30;2.53;;;18.70;99.90;;;;;;5132680;27;20163;-53
2022/07/11 07:52:45;;;;;;;6.47;2.90;;;18.80;99.90;;;;;;5132745;27;20182;-57
2022/07/11 07:55:10;;;;;;;5.20;2.60;;;18.80;99.90;;;;;;5132530;27;20215;-52
2022/07/11 07:57:36;;;;;;;3.72;2.90;;;18.80;99.90;;;;;;5131729;27;20164;-50
2022/07/11 08:02:50;;;;;;;4.65;2.65;;;18.80;99.90;;;;;;5131697;27;20170;-51
2022/07/11 08:05:16;;;;;;;4.20;2.85;;;18.80;99.90;;;;;;5132573;27;20183;-53
2022/07/11 08:07:42;;;;;;;4.80;2.95;;;18.80;99.90;;;;;;5132639;27;20516;-53
2022/07/11 08:10:08;;;;;;;7.28;3.42;;;18.90;99.90;;;;;;5132505;27;20221;-52
2022/07/11 08:12:33;;;;;;;6.15;3.00;;;18.90;99.90;;;;;;5132560;27;20172;-53
2022/07/11 08:15:00;;;;;;;4.85;3.35;;;19.00;99.90;;;;;;5132015;27;20207;-55
2022/07/11 08:17:25;;;;;;;6.00;3.55;;;19.00;99.90;;;;;;5132218;27;20164;-56
2022/07/11 08:19:51;;;;;;;5.63;3.50;;;19.10;99.90;;;;;;5130853;27;20602;-58
2022/07/11 08:22:17;;;;;;;5.63;3.03;;;19.30;99.90;;;;;;5132024;27;20213;-56
2022/07/11 08:24:43;;;;;;;4.55;3.00;;;19.50;99.90;;;;;;5131977;27;20197;-55
2022/07/11 08:27:09;;;;;;;7.57;3.20;;;19.80;99.90;;;;;;5131882;27;20328;-50
2022/07/11 08:29:35;;;;;;;11.48;3.28;;;20.00;99.90;;;;;;5131994;27;20663;-55
2022/07/11 08:32:00;;;;;;;3.05;2.60;;;20.20;99.90;;;;;;5131883;27;20168;-56
2022/07/11 08:34:26;;;;;;;6.40;2.95;;;20.40;99.90;;;;;;5131892;27;20196;-55
2022/07/11 08:36:52;;;;;;;5.70;3.08;;;20.70;99.90;;;;;;5132241;27;20204;-55
2022/07/11 08:39:17;;;;;;;3.42;2.60;;;20.90;99.90;;;;;;5132080;27;20605;-55
2022/07/11 08:41:44;;;;;;;5.78;2.88;;;21.40;99.90;;;;;;5132010;27;20172;-56
2022/07/11 08:44:11;;;;;;;4.38;2.53;;;21.90;99.90;;;;;;5131905;27;20646;-50
2022/07/11 08:46:40;;;;;;;3.53;2.53;;;22.00;99.90;;;;;;5132083;27;20180;-54
2022/07/11 08:49:06;;;;;;;5.85;3.35;;;21.90;99.90;;;;;;5130896;27;20181;-54
2022/07/11 08:51:32;;;;;;;4.32;3.08;;;21.80;99.90;;;;;;5131608;27;20168;-53
2022/07/11 08:53:57;;;;;;;4.75;3.85;;;21.70;99.90;;;;;;5131772;27;20168;-55
2022/07/11 08:56:26;;;;;;;2.75;2.53;;;21.50;99.90;;;;;;5131838;27;20656;-55
2022/07/11 08:58:53;;;;;;;5.03;2.50;;;21.50;99.90;;;;;;5131339;27;20650;-55
2022/07/11 09:01:24;;;;;;;3.65;2.00;;;21.40;99.90;;;;;;5131761;27;20170;-55
2022/07/11 09:03:51;;;;;;;5.32;2.20;;;21.30;99.90;;;;;;5131748;27;20236;-55
2022/07/11 09:06:17;;;;;;;2.45;1.90;;;21.40;99.90;;;;;;5131828;27;20178;-55
2022/07/11 09:08:42;;;;;;;5.28;2.05;;;21.50;99.90;;;;;;5131675;27;20171;-55
2022/07/11 09:11:09;;;;;;;2.00;1.80;;;21.50;99.90;;;;;;5131845;28;20579;-55
2022/07/11 09:13:36;;;;;;;2.03;1.90;;;21.60;99.90;;;;;;5133021;27;20162;-55
2022/07/11 09:16:04;;;;;;;4.07;2.30;;;21.40;99.90;;;;;;5135549;27;20207;-55
2022/07/11 09:18:30;;;;;;;4.40;1.80;;;21.50;99.90;;;;;;5135621;27;20163;-55
2022/07/11 09:26:50;;;;;;;2.40;1.80;;;21.80;99.90;;;;;;5135549;27;20691;-55
2022/07/11 09:29:21;;;;;;;2.10;1.90;;;22.10;99.90;;;;;;5135228;27;20168;-55
2022/07/11 09:31:48;;;;;;;4.03;1.83;;;22.30;99.90;;;;;;5135550;27;20510;-55
2022/07/11 09:34:18;;;;;;;2.33;1.50;;;22.00;99.90;;;;;;5135302;27;20168;-55
2022/07/11 09:36:54;;;;;;;2.22;1.60;;;21.80;99.90;;;;;;5135328;27;20207;-55
2022/07/11 09:39:22;;;;;;;2.33;1.70;;;21.70;99.90;;;;;;5135477;27;20171;-55
2022/07/11 09:41:51;;;;;;;2.78;1.90;;;21.70;99.90;;;;;;5135619;27;20171;-55
2022/07/11 09:44:19;;;;;;;4.45;2.17;;;21.60;99.90;;;;;;5135360;27;20179;-55
2022/07/11 09:46:49;;;;;;;3.13;1.70;;;21.80;99.90;;;;;;5135262;27;20714;-55
2022/07/11 09:49:17;;;;;;;2.85;1.60;;;21.50;99.90;;;;;;5135129;27;20659;-55
2022/07/11 09:51:43;;;;;;;1.95;1.60;;;21.60;99.90;;;;;;5135162;27;20188;-55
2022/07/11 09:54:10;;;;;;;2.03;1.80;;;21.50;99.90;;;;;;5135054;27;20172;-55
2022/07/11 09:56:43;;;;;;;3.60;1.98;;;21.40;99.90;;;;;;5135600;27;20179;-55
2022/07/11 09:59:11;;;;;;;3.35;1.90;;;21.30;99.90;;;;;;5135284;27;20168;-55
2022/07/11 10:01:39;;;;;;;2.95;2.20;;;21.20;99.90;;;;;;5135618;27;20233;-55
2022/07/11 10:04:06;;;;;;;3.92;2.25;;;21.30;99.90;;;;;;5135449;27;20172;-55
2022/07/11 10:06:32;;;;;;;2.10;1.90;;;21.20;99.90;;;;;;5134664;27;20202;-55
2022/07/11 10:08:57;;;;;;;3.08;1.50;;;21.00;99.90;;;;;;5122695;27;20197;-55
2022/07/11 10:11:23;;;;;;;3.03;1.60;;;21.10;99.90;;;;;;5124405;27;20172;-55
2022/07/11 10:13:50;;;;;;;2.97;1.67;;;20.90;99.90;;;;;;5124120;27;20161;-55
2022/07/11 10:16:38;;;;;;;4.75;1.90;;;21.10;99.90;;;;;;5123000;27;20200;-55
2022/07/11 10:19:14;;;;;;;1.73;1.45;;;21.00;99.90;;;;;;5114159;28;20215;-55
2022/07/11 10:22:01;;;;;;;3.97;1.80;;;21.00;99.90;;;;;;5114091;28;20197;-55
2022/07/11 10:24:59;;;;;;;4.32;1.52;;;21.10;99.90;;;;;;5114245;28;20539;-55
2022/07/11 10:27:33;;;;;;;2.35;1.40;;;21.30;99.90;;;;;;5115940;27;20574;-55
2022/07/11 10:30:01;;;;;;;1.33;1.23;;;21.50;99.90;;;;;;5134125;27;20164;-55
2022/07/11 10:32:27;;;;;;;2.20;1.40;;;21.60;99.90;;;;;;5134267;27;20655;-55
2022/07/11 10:35:12;;;;;;;3.50;1.40;;;21.60;99.90;;;;;;5134284;27;20574;-55
2022/07/11 10:37:54;;;;;;;1.95;1.20;;;21.50;99.90;;;;;;5134902;27;20190;-55
2022/07/11 10:40:46;;;;;;;2.25;1.35;;;21.60;99.90;;;;;;5134036;27;20164;-55
2022/07/11 10:43:14;;;;;;;3.05;1.50;;;21.80;99.90;;;;;;5133965;27;20164;-55
2022/07/11 10:46:00;;;;;;;4.32;1.50;;;21.80;99.90;;;;;;5134379;27;20516;-55
2022/07/11 10:48:27;;;;;;;1.33;1.17;;;21.70;99.90;;;;;;5134039;27;20172;-55
2022/07/11 10:51:32;;;;;;;1.98;1.30;;;21.80;99.90;;;;;;5134025;27;20171;-55
2022/07/11 10:54:11;;;;;;;4.13;1.75;;;21.70;99.90;;;;;;5134168;27;20152;-54
2022/07/11 10:57:09;;;;;;;1.60;1.50;;;21.50;99.90;;;;;;5134147;27;20225;-55
2022/07/11 10:59:54;;;;;;;1.63;1.40;;;21.50;99.90;;;;;;5128344;27;20184;-55
2022/07/11 11:02:20;;;;;;;3.42;1.50;;;21.30;99.90;;;;;;5133789;27;20160;-55
2022/07/11 11:04:59;;;;;;;1.58;1.40;;;21.40;99.90;;;;;;5133783;27;20192;-55
2022/07/11 11:07:41;;;;;;;3.03;1.83;;;21.30;99.90;;;;;;5133970;27;20203;-55
2022/07/11 11:10:38;;;;;;;1.42;1.30;;;21.40;99.90;;;;;;5133529;27;20168;-55
2022/07/11 11:13:09;;;;;;;4.20;1.40;;;21.40;99.90;;;;;;5133967;27;20184;-56
2022/07/11 11:15:45;;;;;;;1.98;1.60;;;21.70;99.90;;;;;;5133718;27;20264;-56
2022/07/11 11:18:23;;;;;;;5.03;1.63;;;21.80;99.90;;;;;;5133506;27;20182;-58
2022/07/11 11:21:02;;;;;;;2.65;1.65;;;21.80;99.90;;;;;;5133253;27;20160;-58
2022/07/11 11:23:38;;;;;;;3.47;1.35;;;21.80;99.90;;;;;;5133327;27;20640;-58
2022/07/11 11:26:07;;;;;;;1.17;1.10;;;22.00;99.90;;;;;;5133145;27;20183;-56
2022/07/11 11:28:33;;;;;;;2.50;1.27;;;21.80;99.90;;;;;;5132901;27;20238;-57
2022/07/11 11:31:05;;;;;;;2.20;1.20;;;21.90;99.90;;;;;;5132735;27;20162;-57
2022/07/11 11:33:33;;;;;;;1.65;1.20;;;22.10;99.90;;;;;;5132780;27;20647;-57
2022/07/11 11:36:03;;;;;;;1.38;1.10;;;22.30;99.90;;;;;;5132953;27;20584;-56
2022/07/11 11:38:30;;;;;;;2.60;1.10;;;22.50;99.90;;;;;;5131843;27;20339;-56
2022/07/11 11:40:56;;;;;;;2.42;1.38;;;22.70;99.90;;;;;;5133043;27;20203;-58
2022/07/11 11:43:22;;;;;;;6.38;1.52;;;22.70;99.90;;;;;;5132627;27;20192;-58
2022/07/11 11:45:53;;;;;;;1.70;1.20;;;22.90;99.90;;;;;;5132670;27;20168;-57
2022/07/11 11:48:38;;;;;;;2.40;1.20;;;22.90;99.90;;;;;;5132373;27;20172;-57
2022/07/11 11:51:04;;;;;;;10.43;1.27;;;22.90;99.90;;;;;;5132852;27;20687;-58
2022/07/11 11:53:39;;;;;;;0.80;0.80;;;23.10;99.90;;;;;;5132142;27;20168;-58
2022/07/11 11:56:23;;;;;;;2.05;1.10;;;23.40;99.90;;;;;;5132576;27;20199;-60
2022/07/11 11:58:50;;;;;;;2.22;0.98;;;23.30;99.90;;;;;;5132394;27;20594;-56
2022/07/11 12:01:26;;;;;;;1.10;1.00;;;23.40;99.90;;;;;;5132093;27;20233;-57
2022/07/11 12:03:57;;;;;;;2.90;1.00;;;23.60;99.90;;;;;;5132511;27;20170;-57
2022/07/11 12:06:26;;;;;;;0.80;0.80;;;23.70;99.90;;;;;;5132073;27;20155;-58
2022/07/11 12:08:57;;;;;;;3.72;1.10;;;23.50;99.90;;;;;;5131066;27;20583;-58
2022/07/11 12:11:23;;;;;;;1.15;0.90;;;23.50;99.90;;;;;;5132615;27;20164;-58
2022/07/11 12:13:57;;;;;;;1.42;0.90;;;23.30;99.90;;;;;;5132192;27;20167;-57
2022/07/11 12:16:39;;;;;;;0.57;0.57;;;23.50;99.90;;;;;;5131535;27;20206;-58
2022/07/11 12:19:08;;;;;;;2.60;1.05;;;23.20;99.90;;;;;;5132246;27;20166;-56
2022/07/11 12:21:35;;;;;;;1.35;1.00;;;23.30;99.90;;;;;;5132354;27;20209;-55
2022/07/11 12:24:04;;;;;;;2.60;1.10;;;23.50;99.90;;;;;;5132062;27;20254;-56
2022/07/11 12:26:33;;;;;;;1.02;0.93;;;23.40;99.90;;;;;;5131884;27;20232;-55
2022/07/11 12:29:11;;;;;;;1.52;0.90;;;23.30;99.90;;;;;;5131680;27;20191;-58
2022/07/11 12:31:53;;;;;;;1.52;1.38;;;23.30;99.90;;;;;;5132312;27;20655;-57
2022/07/11 12:34:42;;;;;;;3.05;0.90;;;23.30;99.90;;;;;;5131973;27;20179;-58
2022/07/11 12:37:09;;;;;;;2.53;1.10;;;23.20;99.90;;;;;;5132380;27;20655;-57
2022/07/11 12:39:45;;;;;;;2.17;0.80;;;23.10;99.90;;;;;;5132249;27;20164;-56
2022/07/11 12:42:28;;;;;;;0.98;0.85;;;23.00;99.90;;;;;;5131640;27;20175;-58
2022/07/11 12:44:59;;;;;;;1.88;1.20;;;23.00;99.90;;;;;;5130713;27;20175;-55
2022/07/11 12:47:27;;;;;;;2.10;0.88;;;23.00;99.90;;;;;;5131902;27;20204;-56
2022/07/11 12:49:53;;;;;;;1.23;0.80;;;23.00;99.90;;;;;;5131573;27;20537;-57
2022/07/11 12:52:19;;;;;;;2.50;1.30;;;23.10;99.90;;;;;;5131066;27;20171;-55
2022/07/11 12:54:45;;;;;;;3.42;1.00;;;23.10;99.90;;;;;;5131158;27;20203;-57
2022/07/11 12:57:16;;;;;;;0.93;0.88;;;23.20;99.90;;;;;;5131279;27;20174;-58
2022/07/11 12:59:41;;;;;;;6.40;0.90;;;23.30;99.90;;;;;;5131576;27;20254;-56
2022/07/11 13:02:10;;;;;;;0.88;0.88;;;23.30;99.90;;;;;;5131759;28;20247;-55